sensor_id;sensor_type;location;lat;lon;timestamp;P1;durP1;ratioP1;P2;durP2;ratioP2
55134;SDS011;41031;44.750;11.308;2023-07-29T00:01:37;7.33;;;3.63;;
55134;SDS011;41031;44.750;11.308;2023-07-29T00:04:08;6.50;;;3.93;;
55134;SDS011;41031;44.750;11.308;2023-07-29T00:06:35;5.73;;;3.40;;
55134;SDS011;41031;44.750;11.308;2023-07-29T00:09:03;11.63;;;3.90;;
55134;SDS011;41031;44.750;11.308;2023-07-29T00:11:30;8.50;;;3.90;;
55134;SDS011;41031;44.750;11.308;2023-07-29T00:14:03;7.33;;;3.37;;
55134;SDS011;41031;44.750;11.308;2023-07-29T00:16:30;4.77;;;3.37;;
55134;SDS011;41031;44.750;11.308;2023-07-29T00:18:57;7.10;;;3.87;;
55134;SDS011;41031;44.750;11.308;2023-07-29T00:21:24;6.23;;;3.47;;
55134;SDS011;41031;44.750;11.308;2023-07-29T00:23:51;5.97;;;3.63;;
55134;SDS011;41031;44.750;11.308;2023-07-29T00:26:18;7.87;;;4.00;;
55134;SDS011;41031;44.750;11.308;2023-07-29T00:28:46;6.07;;;4.00;;
55134;SDS011;41031;44.750;11.308;2023-07-29T00:31:13;11.10;;;3.93;;
55134;SDS011;41031;44.750;11.308;2023-07-29T00:33:40;5.17;;;3.67;;
55134;SDS011;41031;44.750;11.308;2023-07-29T00:36:07;7.43;;;3.70;;
55134;SDS011;41031;44.750;11.308;2023-07-29T00:38:34;5.40;;;3.67;;
55134;SDS011;41031;44.750;11.308;2023-07-29T00:41:02;5.63;;;3.47;;
55134;SDS011;41031;44.750;11.308;2023-07-29T00:43:29;5.23;;;3.83;;
55134;SDS011;41031;44.750;11.308;2023-07-29T00:45:56;4.63;;;4.00;;
55134;SDS011;41031;44.750;11.308;2023-07-29T00:48:24;10.87;;;4.63;;
55134;SDS011;41031;44.750;11.308;2023-07-29T00:50:53;9.20;;;4.20;;
55134;SDS011;41031;44.750;11.308;2023-07-29T00:53:20;5.53;;;3.37;;
55134;SDS011;41031;44.750;11.308;2023-07-29T00:55:49;6.80;;;3.70;;
55134;SDS011;41031;44.750;11.308;2023-07-29T00:58:16;6.00;;;3.90;;
55134;SDS011;41031;44.750;11.308;2023-07-29T01:00:43;3.97;;;3.43;;
55134;SDS011;41031;44.750;11.308;2023-07-29T01:03:10;7.30;;;3.63;;
55134;SDS011;41031;44.750;11.308;2023-07-29T01:05:41;4.47;;;3.53;;
55134;SDS011;41031;44.750;11.308;2023-07-29T01:08:27;5.00;;;3.73;;
55134;SDS011;41031;44.750;11.308;2023-07-29T01:11:12;7.03;;;4.40;;
55134;SDS011;41031;44.750;11.308;2023-07-29T01:14:11;6.53;;;4.57;;
55134;SDS011;41031;44.750;11.308;2023-07-29T01:16:45;5.83;;;4.13;;
55134;SDS011;41031;44.750;11.308;2023-07-29T01:19:42;6.63;;;3.67;;
55134;SDS011;41031;44.750;11.308;2023-07-29T01:22:05;10.47;;;3.80;;
55134;SDS011;41031;44.750;11.308;2023-07-29T01:24:34;8.40;;;4.30;;
55134;SDS011;41031;44.750;11.308;2023-07-29T01:27:00;4.27;;;3.60;;
55134;SDS011;41031;44.750;11.308;2023-07-29T01:29:30;5.10;;;4.03;;
55134;SDS011;41031;44.750;11.308;2023-07-29T01:31:58;5.73;;;4.00;;
55134;SDS011;41031;44.750;11.308;2023-07-29T01:34:35;7.43;;;3.80;;
55134;SDS011;41031;44.750;11.308;2023-07-29T01:37:08;6.77;;;3.87;;
55134;SDS011;41031;44.750;11.308;2023-07-29T01:39:39;4.93;;;3.67;;
55134;SDS011;41031;44.750;11.308;2023-07-29T01:42:07;9.23;;;3.60;;
55134;SDS011;41031;44.750;11.308;2023-07-29T01:44:34;8.17;;;3.77;;
55134;SDS011;41031;44.750;11.308;2023-07-29T01:47:02;5.00;;;3.60;;
55134;SDS011;41031;44.750;11.308;2023-07-29T01:49:29;5.37;;;4.00;;
55134;SDS011;41031;44.750;11.308;2023-07-29T01:51:58;6.90;;;4.20;;
55134;SDS011;41031;44.750;11.308;2023-07-29T01:54:25;6.40;;;3.90;;
55134;SDS011;41031;44.750;11.308;2023-07-29T01:56:52;8.07;;;4.10;;
55134;SDS011;41031;44.750;11.308;2023-07-29T01:59:19;5.90;;;4.43;;
55134;SDS011;41031;44.750;11.308;2023-07-29T02:01:46;6.67;;;4.67;;
55134;SDS011;41031;44.750;11.308;2023-07-29T02:04:15;7.27;;;4.33;;
55134;SDS011;41031;44.750;11.308;2023-07-29T02:06:42;6.47;;;3.83;;
55134;SDS011;41031;44.750;11.308;2023-07-29T02:09:09;5.67;;;4.30;;
55134;SDS011;41031;44.750;11.308;2023-07-29T02:11:36;4.90;;;3.40;;
55134;SDS011;41031;44.750;11.308;2023-07-29T02:14:03;5.37;;;3.93;;
55134;SDS011;41031;44.750;11.308;2023-07-29T02:16:30;4.63;;;3.57;;
55134;SDS011;41031;44.750;11.308;2023-07-29T02:18:59;7.60;;;4.60;;
55134;SDS011;41031;44.750;11.308;2023-07-29T02:21:26;5.87;;;4.20;;
55134;SDS011;41031;44.750;11.308;2023-07-29T02:23:53;6.13;;;3.90;;
55134;SDS011;41031;44.750;11.308;2023-07-29T02:26:20;6.60;;;3.90;;
55134;SDS011;41031;44.750;11.308;2023-07-29T02:28:48;9.73;;;4.30;;
55134;SDS011;41031;44.750;11.308;2023-07-29T02:31:17;6.10;;;4.40;;
55134;SDS011;41031;44.750;11.308;2023-07-29T02:33:47;6.93;;;4.37;;
55134;SDS011;41031;44.750;11.308;2023-07-29T02:36:17;10.13;;;4.40;;
55134;SDS011;41031;44.750;11.308;2023-07-29T02:38:44;6.10;;;4.57;;
55134;SDS011;41031;44.750;11.308;2023-07-29T02:41:12;5.00;;;4.13;;
55134;SDS011;41031;44.750;11.308;2023-07-29T02:43:42;4.87;;;3.80;;
55134;SDS011;41031;44.750;11.308;2023-07-29T02:46:15;10.67;;;4.40;;
55134;SDS011;41031;44.750;11.308;2023-07-29T02:48:44;7.07;;;4.50;;
55134;SDS011;41031;44.750;11.308;2023-07-29T02:51:11;7.50;;;4.60;;
55134;SDS011;41031;44.750;11.308;2023-07-29T02:53:38;5.40;;;4.20;;
55134;SDS011;41031;44.750;11.308;2023-07-29T02:56:05;4.50;;;4.00;;
55134;SDS011;41031;44.750;11.308;2023-07-29T02:58:36;5.50;;;4.20;;
55134;SDS011;41031;44.750;11.308;2023-07-29T03:01:04;5.70;;;4.40;;
55134;SDS011;41031;44.750;11.308;2023-07-29T03:03:32;9.60;;;4.53;;
55134;SDS011;41031;44.750;11.308;2023-07-29T03:06:04;4.77;;;4.17;;
55134;SDS011;41031;44.750;11.308;2023-07-29T03:08:32;6.17;;;4.40;;
55134;SDS011;41031;44.750;11.308;2023-07-29T03:11:04;4.37;;;3.97;;
55134;SDS011;41031;44.750;11.308;2023-07-29T03:13:35;8.17;;;4.13;;
55134;SDS011;41031;44.750;11.308;2023-07-29T03:16:07;6.97;;;4.63;;
55134;SDS011;41031;44.750;11.308;2023-07-29T03:18:47;7.33;;;4.30;;
55134;SDS011;41031;44.750;11.308;2023-07-29T03:21:15;5.97;;;4.20;;
55134;SDS011;41031;44.750;11.308;2023-07-29T03:23:42;6.00;;;4.17;;
55134;SDS011;41031;44.750;11.308;2023-07-29T03:26:09;9.00;;;4.30;;
55134;SDS011;41031;44.750;11.308;2023-07-29T03:28:41;6.57;;;4.67;;
55134;SDS011;41031;44.750;11.308;2023-07-29T03:31:09;7.57;;;4.60;;
55134;SDS011;41031;44.750;11.308;2023-07-29T03:33:38;4.67;;;4.17;;
55134;SDS011;41031;44.750;11.308;2023-07-29T03:36:05;7.73;;;4.30;;
55134;SDS011;41031;44.750;11.308;2023-07-29T03:38:32;7.87;;;4.83;;
55134;SDS011;41031;44.750;11.308;2023-07-29T03:41:07;7.20;;;4.60;;
55134;SDS011;41031;44.750;11.308;2023-07-29T03:43:35;6.10;;;4.63;;
55134;SDS011;41031;44.750;11.308;2023-07-29T03:46:02;11.43;;;4.83;;
55134;SDS011;41031;44.750;11.308;2023-07-29T03:48:29;7.37;;;4.87;;
55134;SDS011;41031;44.750;11.308;2023-07-29T03:50:57;5.67;;;4.57;;
55134;SDS011;41031;44.750;11.308;2023-07-29T03:53:25;5.70;;;4.47;;
55134;SDS011;41031;44.750;11.308;2023-07-29T03:55:52;6.90;;;4.57;;
55134;SDS011;41031;44.750;11.308;2023-07-29T03:58:19;7.10;;;4.90;;
55134;SDS011;41031;44.750;11.308;2023-07-29T04:00:46;5.93;;;4.87;;
55134;SDS011;41031;44.750;11.308;2023-07-29T04:03:13;7.93;;;4.80;;
55134;SDS011;41031;44.750;11.308;2023-07-29T04:05:41;6.57;;;4.87;;
55134;SDS011;41031;44.750;11.308;2023-07-29T04:08:08;6.97;;;4.37;;
55134;SDS011;41031;44.750;11.308;2023-07-29T04:10:36;16.43;;;5.07;;
55134;SDS011;41031;44.750;11.308;2023-07-29T04:13:04;8.37;;;4.83;;
55134;SDS011;41031;44.750;11.308;2023-07-29T04:15:31;5.40;;;4.30;;
55134;SDS011;41031;44.750;11.308;2023-07-29T04:17:58;5.97;;;4.33;;
55134;SDS011;41031;44.750;11.308;2023-07-29T04:20:25;4.80;;;4.23;;
55134;SDS011;41031;44.750;11.308;2023-07-29T04:22:53;7.90;;;4.93;;
55134;SDS011;41031;44.750;11.308;2023-07-29T04:25:20;7.43;;;4.73;;
55134;SDS011;41031;44.750;11.308;2023-07-29T04:27:47;6.00;;;4.53;;
55134;SDS011;41031;44.750;11.308;2023-07-29T04:30:14;9.70;;;4.40;;
55134;SDS011;41031;44.750;11.308;2023-07-29T04:32:41;7.73;;;4.60;;
55134;SDS011;41031;44.750;11.308;2023-07-29T04:35:08;7.13;;;4.40;;
55134;SDS011;41031;44.750;11.308;2023-07-29T04:37:36;7.23;;;4.10;;
55134;SDS011;41031;44.750;11.308;2023-07-29T04:40:03;6.57;;;4.80;;
55134;SDS011;41031;44.750;11.308;2023-07-29T04:42:30;5.57;;;4.17;;
55134;SDS011;41031;44.750;11.308;2023-07-29T04:44:57;13.77;;;4.53;;
55134;SDS011;41031;44.750;11.308;2023-07-29T04:47:24;11.00;;;4.93;;
55134;SDS011;41031;44.750;11.308;2023-07-29T04:49:52;14.17;;;4.80;;
55134;SDS011;41031;44.750;11.308;2023-07-29T04:52:20;5.13;;;4.23;;
55134;SDS011;41031;44.750;11.308;2023-07-29T04:54:48;6.43;;;4.37;;
55134;SDS011;41031;44.750;11.308;2023-07-29T04:57:15;6.47;;;4.13;;
55134;SDS011;41031;44.750;11.308;2023-07-29T04:59:42;10.13;;;4.37;;
55134;SDS011;41031;44.750;11.308;2023-07-29T05:02:09;5.07;;;4.23;;
55134;SDS011;41031;44.750;11.308;2023-07-29T05:04:36;8.37;;;4.53;;
55134;SDS011;41031;44.750;11.308;2023-07-29T05:07:03;10.57;;;4.40;;
55134;SDS011;41031;44.750;11.308;2023-07-29T05:09:31;8.70;;;5.00;;
55134;SDS011;41031;44.750;11.308;2023-07-29T05:11:58;5.23;;;4.10;;
55134;SDS011;41031;44.750;11.308;2023-07-29T05:14:25;7.43;;;4.20;;
55134;SDS011;41031;44.750;11.308;2023-07-29T05:16:53;6.60;;;4.60;;
55134;SDS011;41031;44.750;11.308;2023-07-29T05:19:20;7.20;;;4.37;;
55134;SDS011;41031;44.750;11.308;2023-07-29T05:21:48;4.40;;;3.80;;
55134;SDS011;41031;44.750;11.308;2023-07-29T05:24:15;8.57;;;3.80;;
55134;SDS011;41031;44.750;11.308;2023-07-29T05:26:42;6.43;;;4.00;;
55134;SDS011;41031;44.750;11.308;2023-07-29T05:29:09;4.63;;;3.53;;
55134;SDS011;41031;44.750;11.308;2023-07-29T05:31:36;6.20;;;3.80;;
55134;SDS011;41031;44.750;11.308;2023-07-29T05:34:03;8.60;;;3.57;;
55134;SDS011;41031;44.750;11.308;2023-07-29T05:36:30;6.97;;;4.30;;
55134;SDS011;41031;44.750;11.308;2023-07-29T05:38:58;6.70;;;3.90;;
55134;SDS011;41031;44.750;11.308;2023-07-29T05:41:25;4.90;;;3.70;;
55134;SDS011;41031;44.750;11.308;2023-07-29T05:43:54;4.60;;;3.80;;
55134;SDS011;41031;44.750;11.308;2023-07-29T05:46:21;4.73;;;3.60;;
55134;SDS011;41031;44.750;11.308;2023-07-29T05:48:48;7.50;;;3.47;;
55134;SDS011;41031;44.750;11.308;2023-07-29T05:51:16;4.33;;;3.80;;
55134;SDS011;41031;44.750;11.308;2023-07-29T05:53:43;4.63;;;3.43;;
55134;SDS011;41031;44.750;11.308;2023-07-29T05:56:11;7.50;;;3.60;;
55134;SDS011;41031;44.750;11.308;2023-07-29T05:58:38;6.73;;;4.10;;
55134;SDS011;41031;44.750;11.308;2023-07-29T06:01:06;5.47;;;3.67;;
55134;SDS011;41031;44.750;11.308;2023-07-29T06:03:33;7.93;;;3.70;;
55134;SDS011;41031;44.750;11.308;2023-07-29T06:06:00;10.77;;;4.00;;
55134;SDS011;41031;44.750;11.308;2023-07-29T06:08:27;6.20;;;3.37;;
55134;SDS011;41031;44.750;11.308;2023-07-29T06:10:55;6.53;;;3.33;;
55134;SDS011;41031;44.750;11.308;2023-07-29T06:13:22;5.37;;;3.93;;
55134;SDS011;41031;44.750;11.308;2023-07-29T06:15:49;4.93;;;3.80;;
55134;SDS011;41031;44.750;11.308;2023-07-29T06:18:16;7.50;;;3.97;;
55134;SDS011;41031;44.750;11.308;2023-07-29T06:20:43;8.07;;;3.80;;
55134;SDS011;41031;44.750;11.308;2023-07-29T06:23:10;4.53;;;3.57;;
55134;SDS011;41031;44.750;11.308;2023-07-29T06:25:37;6.57;;;4.10;;
55134;SDS011;41031;44.750;11.308;2023-07-29T06:28:04;5.47;;;3.53;;
55134;SDS011;41031;44.750;11.308;2023-07-29T06:30:31;6.70;;;3.47;;
55134;SDS011;41031;44.750;11.308;2023-07-29T06:32:58;19.87;;;4.57;;
55134;SDS011;41031;44.750;11.308;2023-07-29T06:35:26;6.33;;;3.70;;
55134;SDS011;41031;44.750;11.308;2023-07-29T06:37:53;7.03;;;3.30;;
55134;SDS011;41031;44.750;11.308;2023-07-29T06:40:20;5.70;;;3.67;;
55134;SDS011;41031;44.750;11.308;2023-07-29T06:42:47;8.70;;;4.03;;
55134;SDS011;41031;44.750;11.308;2023-07-29T06:45:14;4.37;;;3.23;;
55134;SDS011;41031;44.750;11.308;2023-07-29T06:47:42;6.37;;;3.57;;
55134;SDS011;41031;44.750;11.308;2023-07-29T06:50:09;3.53;;;3.10;;
55134;SDS011;41031;44.750;11.308;2023-07-29T06:52:36;7.20;;;3.30;;
55134;SDS011;41031;44.750;11.308;2023-07-29T06:55:04;5.00;;;2.60;;
55134;SDS011;41031;44.750;11.308;2023-07-29T06:57:31;6.03;;;2.97;;
55134;SDS011;41031;44.750;11.308;2023-07-29T09:55:25;3.67;;;2.50;;
55134;SDS011;41031;44.750;11.308;2023-07-29T09:57:56;5.83;;;2.23;;
55134;SDS011;41031;44.750;11.308;2023-07-29T10:00:31;5.40;;;2.40;;
55134;SDS011;41031;44.750;11.308;2023-07-29T10:02:59;8.30;;;3.10;;
55134;SDS011;41031;44.750;11.308;2023-07-29T10:05:41;3.87;;;2.87;;
55134;SDS011;41031;44.750;11.308;2023-07-29T10:08:08;10.53;;;2.57;;
55134;SDS011;41031;44.750;11.308;2023-07-29T10:10:37;2.83;;;2.60;;
55134;SDS011;41031;44.750;11.308;2023-07-29T10:13:04;3.93;;;2.57;;
55134;SDS011;41031;44.750;11.308;2023-07-29T10:15:32;3.47;;;2.37;;
55134;SDS011;41031;44.750;11.308;2023-07-29T10:17:59;6.33;;;2.90;;
55134;SDS011;41031;44.750;11.308;2023-07-29T10:20:30;3.57;;;2.83;;
55134;SDS011;41031;44.750;11.308;2023-07-29T10:22:59;7.07;;;3.03;;
55134;SDS011;41031;44.750;11.308;2023-07-29T10:25:30;4.13;;;2.67;;
55134;SDS011;41031;44.750;11.308;2023-07-29T10:28:06;3.50;;;2.77;;
55134;SDS011;41031;44.750;11.308;2023-07-29T10:30:34;4.97;;;2.20;;
55134;SDS011;41031;44.750;11.308;2023-07-29T10:33:02;5.87;;;3.10;;
55134;SDS011;41031;44.750;11.308;2023-07-29T10:35:34;4.13;;;2.87;;
55134;SDS011;41031;44.750;11.308;2023-07-29T10:38:02;7.30;;;2.60;;
55134;SDS011;41031;44.750;11.308;2023-07-29T10:40:44;5.37;;;2.40;;
55134;SDS011;41031;44.750;11.308;2023-07-29T10:43:11;5.77;;;2.50;;
55134;SDS011;41031;44.750;11.308;2023-07-29T10:45:45;3.13;;;2.50;;
55134;SDS011;41031;44.750;11.308;2023-07-29T10:53:48;4.80;;;2.50;;
55134;SDS011;41031;44.750;11.308;2023-07-29T10:56:32;3.37;;;2.50;;
55134;SDS011;41031;44.750;11.308;2023-07-29T10:59:22;6.63;;;2.60;;
55134;SDS011;41031;44.750;11.308;2023-07-29T11:02:01;2.90;;;2.23;;
55134;SDS011;41031;44.750;11.308;2023-07-29T11:04:29;4.03;;;2.70;;
55134;SDS011;41031;44.750;11.308;2023-07-29T11:07:18;3.57;;;2.30;;
55134;SDS011;41031;44.750;11.308;2023-07-29T11:09:59;7.27;;;2.50;;
55134;SDS011;41031;44.750;11.308;2023-07-29T11:20:34;2.87;;;2.40;;
55134;SDS011;41031;44.750;11.308;2023-07-29T11:23:03;7.13;;;2.43;;
55134;SDS011;41031;44.750;11.308;2023-07-29T11:25:31;7.10;;;2.93;;
55134;SDS011;41031;44.750;11.308;2023-07-29T11:28:00;6.23;;;2.43;;
55134;SDS011;41031;44.750;11.308;2023-07-29T11:30:32;3.03;;;2.20;;
55134;SDS011;41031;44.750;11.308;2023-07-29T11:33:01;4.37;;;2.70;;
55134;SDS011;41031;44.750;11.308;2023-07-29T11:35:28;5.13;;;2.80;;
55134;SDS011;41031;44.750;11.308;2023-07-29T11:37:55;5.63;;;2.83;;
55134;SDS011;41031;44.750;11.308;2023-07-29T11:40:25;4.00;;;2.37;;
55134;SDS011;41031;44.750;11.308;2023-07-29T11:42:52;5.57;;;3.20;;
55134;SDS011;41031;44.750;11.308;2023-07-29T11:45:21;5.30;;;2.57;;
55134;SDS011;41031;44.750;11.308;2023-07-29T11:48:15;4.13;;;2.40;;
55134;SDS011;41031;44.750;11.308;2023-07-29T11:50:45;3.20;;;2.90;;
55134;SDS011;41031;44.750;11.308;2023-07-29T11:53:12;3.28;;;2.60;;
55134;SDS011;41031;44.750;11.308;2023-07-29T11:55:42;2.70;;;2.33;;
55134;SDS011;41031;44.750;11.308;2023-07-29T11:58:10;3.10;;;2.03;;
55134;SDS011;41031;44.750;11.308;2023-07-29T12:00:40;4.87;;;2.37;;
55134;SDS011;41031;44.750;11.308;2023-07-29T12:03:08;5.40;;;2.50;;
55134;SDS011;41031;44.750;11.308;2023-07-29T12:05:38;3.85;;;2.40;;
55134;SDS011;41031;44.750;11.308;2023-07-29T12:08:09;4.13;;;2.30;;
55134;SDS011;41031;44.750;11.308;2023-07-29T12:10:36;3.87;;;2.60;;
55134;SDS011;41031;44.750;11.308;2023-07-29T12:13:07;2.90;;;2.30;;
55134;SDS011;41031;44.750;11.308;2023-07-29T12:15:39;2.77;;;2.40;;
55134;SDS011;41031;44.750;11.308;2023-07-29T12:18:07;2.38;;;2.15;;
55134;SDS011;41031;44.750;11.308;2023-07-29T12:20:34;2.90;;;2.63;;
55134;SDS011;41031;44.750;11.308;2023-07-29T12:23:03;2.40;;;2.00;;
55134;SDS011;41031;44.750;11.308;2023-07-29T12:25:32;3.90;;;2.53;;
55134;SDS011;41031;44.750;11.308;2023-07-29T12:28:06;5.72;;;2.22;;
55134;SDS011;41031;44.750;11.308;2023-07-29T12:30:34;2.83;;;2.17;;
55134;SDS011;41031;44.750;11.308;2023-07-29T12:33:07;3.45;;;2.70;;
55134;SDS011;41031;44.750;11.308;2023-07-29T12:35:35;5.13;;;2.60;;
55134;SDS011;41031;44.750;11.308;2023-07-29T12:38:06;2.42;;;2.22;;
55134;SDS011;41031;44.750;11.308;2023-07-29T12:40:38;4.20;;;2.77;;
55134;SDS011;41031;44.750;11.308;2023-07-29T12:43:06;3.63;;;2.58;;
55134;SDS011;41031;44.750;11.308;2023-07-29T12:45:37;3.73;;;2.13;;
55134;SDS011;41031;44.750;11.308;2023-07-29T12:48:08;3.33;;;2.40;;
55134;SDS011;41031;44.750;11.308;2023-07-29T12:50:36;4.27;;;2.40;;
55134;SDS011;41031;44.750;11.308;2023-07-29T12:53:07;3.08;;;2.38;;
55134;SDS011;41031;44.750;11.308;2023-07-29T12:55:37;3.37;;;2.53;;
55134;SDS011;41031;44.750;11.308;2023-07-29T12:58:05;4.93;;;2.73;;
55134;SDS011;41031;44.750;11.308;2023-07-29T13:00:32;2.33;;;2.13;;
55134;SDS011;41031;44.750;11.308;2023-07-29T13:03:02;3.53;;;2.43;;
55134;SDS011;41031;44.750;11.308;2023-07-29T13:05:33;6.93;;;2.53;;
55134;SDS011;41031;44.750;11.308;2023-07-29T13:08:03;3.25;;;2.55;;
55134;SDS011;41031;44.750;11.308;2023-07-29T13:10:30;4.05;;;2.75;;
55134;SDS011;41031;44.750;11.308;2023-07-29T13:13:01;5.70;;;2.80;;
55134;SDS011;41031;44.750;11.308;2023-07-29T13:15:28;5.05;;;2.58;;
55134;SDS011;41031;44.750;11.308;2023-07-29T13:17:55;2.50;;;2.25;;
55134;SDS011;41031;44.750;11.308;2023-07-29T13:20:22;4.03;;;2.20;;
55134;SDS011;41031;44.750;11.308;2023-07-29T13:22:51;9.23;;;2.50;;
55134;SDS011;41031;44.750;11.308;2023-07-29T13:25:18;4.50;;;3.05;;
55134;SDS011;41031;44.750;11.308;2023-07-29T13:27:46;4.53;;;2.53;;
55134;SDS011;41031;44.750;11.308;2023-07-29T13:30:13;2.75;;;2.20;;
55134;SDS011;41031;44.750;11.308;2023-07-29T13:32:43;5.07;;;2.67;;
55134;SDS011;41031;44.750;11.308;2023-07-29T13:35:10;3.67;;;2.50;;
55134;SDS011;41031;44.750;11.308;2023-07-29T13:37:37;2.88;;;2.58;;
55134;SDS011;41031;44.750;11.308;2023-07-29T13:40:08;2.65;;;2.40;;
55134;SDS011;41031;44.750;11.308;2023-07-29T13:42:35;3.08;;;2.20;;
55134;SDS011;41031;44.750;11.308;2023-07-29T13:45:02;3.80;;;2.57;;
55134;SDS011;41031;44.750;11.308;2023-07-29T13:47:32;3.72;;;2.92;;
55134;SDS011;41031;44.750;11.308;2023-07-29T13:49:59;4.57;;;2.50;;
55134;SDS011;41031;44.750;11.308;2023-07-29T13:52:30;6.30;;;2.30;;
55134;SDS011;41031;44.750;11.308;2023-07-29T13:54:57;8.73;;;2.67;;
55134;SDS011;41031;44.750;11.308;2023-07-29T13:57:27;3.80;;;2.87;;
55134;SDS011;41031;44.750;11.308;2023-07-29T13:59:54;6.93;;;2.53;;
55134;SDS011;41031;44.750;11.308;2023-07-29T14:02:22;4.80;;;2.23;;
55134;SDS011;41031;44.750;11.308;2023-07-29T14:04:49;2.73;;;2.50;;
55134;SDS011;41031;44.750;11.308;2023-07-29T14:07:17;4.47;;;2.27;;
55134;SDS011;41031;44.750;11.308;2023-07-29T14:09:47;4.57;;;2.80;;
55134;SDS011;41031;44.750;11.308;2023-07-29T14:12:14;4.27;;;2.63;;
55134;SDS011;41031;44.750;11.308;2023-07-29T14:14:42;7.20;;;2.50;;
55134;SDS011;41031;44.750;11.308;2023-07-29T14:20:02;4.47;;;3.00;;
55134;SDS011;41031;44.750;11.308;2023-07-29T14:22:33;5.07;;;2.60;;
55134;SDS011;41031;44.750;11.308;2023-07-29T14:25:00;2.97;;;2.08;;
55134;SDS011;41031;44.750;11.308;2023-07-29T14:27:29;3.72;;;2.40;;
55134;SDS011;41031;44.750;11.308;2023-07-29T14:29:57;3.67;;;2.40;;
55134;SDS011;41031;44.750;11.308;2023-07-29T14:32:25;5.57;;;2.37;;
55134;SDS011;41031;44.750;11.308;2023-07-29T14:34:52;3.40;;;2.60;;
55134;SDS011;41031;44.750;11.308;2023-07-29T14:37:20;4.57;;;2.67;;
55134;SDS011;41031;44.750;11.308;2023-07-29T14:39:47;3.17;;;2.47;;
55134;SDS011;41031;44.750;11.308;2023-07-29T14:42:14;4.93;;;2.40;;
55134;SDS011;41031;44.750;11.308;2023-07-29T14:44:44;3.43;;;2.50;;
55134;SDS011;41031;44.750;11.308;2023-07-29T14:47:12;4.17;;;2.57;;
55134;SDS011;41031;44.750;11.308;2023-07-29T14:49:40;2.37;;;2.13;;
55134;SDS011;41031;44.750;11.308;2023-07-29T14:52:07;3.10;;;2.30;;
55134;SDS011;41031;44.750;11.308;2023-07-29T14:54:34;4.33;;;2.70;;
55134;SDS011;41031;44.750;11.308;2023-07-29T14:57:04;4.87;;;2.70;;
55134;SDS011;41031;44.750;11.308;2023-07-29T14:59:33;4.67;;;2.30;;
55134;SDS011;41031;44.750;11.308;2023-07-29T15:02:01;3.53;;;2.60;;
55134;SDS011;41031;44.750;11.308;2023-07-29T15:04:28;3.20;;;2.90;;
55134;SDS011;41031;44.750;11.308;2023-07-29T15:06:56;6.47;;;2.73;;
55134;SDS011;41031;44.750;11.308;2023-07-29T15:09:24;2.60;;;2.40;;
55134;SDS011;41031;44.750;11.308;2023-07-29T15:11:51;4.10;;;2.50;;
55134;SDS011;41031;44.750;11.308;2023-07-29T15:14:18;3.63;;;2.70;;
55134;SDS011;41031;44.750;11.308;2023-07-29T15:16:46;5.17;;;2.67;;
55134;SDS011;41031;44.750;11.308;2023-07-29T15:19:13;2.40;;;2.20;;
55134;SDS011;41031;44.750;11.308;2023-07-29T15:21:44;4.20;;;2.37;;
55134;SDS011;41031;44.750;11.308;2023-07-29T15:24:14;4.60;;;2.67;;
55134;SDS011;41031;44.750;11.308;2023-07-29T15:26:42;4.43;;;2.13;;
55134;SDS011;41031;44.750;11.308;2023-07-29T15:29:10;3.40;;;2.77;;
55134;SDS011;41031;44.750;11.308;2023-07-29T15:31:47;5.40;;;2.40;;
55134;SDS011;41031;44.750;11.308;2023-07-29T15:34:14;4.10;;;2.10;;
55134;SDS011;41031;44.750;11.308;2023-07-29T15:36:42;4.47;;;2.87;;
55134;SDS011;41031;44.750;11.308;2023-07-29T15:39:11;3.03;;;2.40;;
55134;SDS011;41031;44.750;11.308;2023-07-29T15:41:44;4.90;;;2.70;;
55134;SDS011;41031;44.750;11.308;2023-07-29T15:44:12;4.30;;;2.40;;
55134;SDS011;41031;44.750;11.308;2023-07-29T15:46:39;4.93;;;2.70;;
55134;SDS011;41031;44.750;11.308;2023-07-29T15:49:10;3.63;;;2.77;;
55134;SDS011;41031;44.750;11.308;2023-07-29T15:51:37;3.40;;;2.50;;
55134;SDS011;41031;44.750;11.308;2023-07-29T15:54:04;5.03;;;2.60;;
55134;SDS011;41031;44.750;11.308;2023-07-29T15:56:32;3.77;;;2.90;;
55134;SDS011;41031;44.750;11.308;2023-07-29T15:59:03;4.63;;;2.50;;
55134;SDS011;41031;44.750;11.308;2023-07-29T16:01:30;5.47;;;2.47;;
55134;SDS011;41031;44.750;11.308;2023-07-29T16:03:57;5.40;;;2.50;;
55134;SDS011;41031;44.750;11.308;2023-07-29T16:06:25;3.70;;;2.80;;
55134;SDS011;41031;44.750;11.308;2023-07-29T16:08:59;3.83;;;2.33;;
55134;SDS011;41031;44.750;11.308;2023-07-29T16:11:32;3.93;;;2.77;;
55134;SDS011;41031;44.750;11.308;2023-07-29T16:14:00;5.83;;;2.23;;
55134;SDS011;41031;44.750;11.308;2023-07-29T16:16:28;3.07;;;2.73;;
55134;SDS011;41031;44.750;11.308;2023-07-29T16:18:56;7.70;;;2.40;;
55134;SDS011;41031;44.750;11.308;2023-07-29T16:21:23;2.97;;;2.50;;
55134;SDS011;41031;44.750;11.308;2023-07-29T16:23:51;3.50;;;2.60;;
55134;SDS011;41031;44.750;11.308;2023-07-29T16:26:19;3.73;;;2.60;;
55134;SDS011;41031;44.750;11.308;2023-07-29T16:28:47;4.67;;;2.93;;
55134;SDS011;41031;44.750;11.308;2023-07-29T16:31:14;4.17;;;2.70;;
55134;SDS011;41031;44.750;11.308;2023-07-29T16:33:41;4.70;;;2.60;;
55134;SDS011;41031;44.750;11.308;2023-07-29T16:36:09;6.97;;;2.63;;
55134;SDS011;41031;44.750;11.308;2023-07-29T16:38:36;3.63;;;2.60;;
55134;SDS011;41031;44.750;11.308;2023-07-29T16:41:06;3.57;;;2.63;;
55134;SDS011;41031;44.750;11.308;2023-07-29T16:43:53;4.13;;;2.60;;
55134;SDS011;41031;44.750;11.308;2023-07-29T16:46:27;3.23;;;2.60;;
55134;SDS011;41031;44.750;11.308;2023-07-29T16:48:54;3.40;;;2.47;;
55134;SDS011;41031;44.750;11.308;2023-07-29T16:51:22;3.90;;;2.33;;
55134;SDS011;41031;44.750;11.308;2023-07-29T16:53:50;5.03;;;2.67;;
55134;SDS011;41031;44.750;11.308;2023-07-29T16:56:22;3.27;;;2.17;;
55134;SDS011;41031;44.750;11.308;2023-07-29T16:58:50;2.50;;;2.30;;
55134;SDS011;41031;44.750;11.308;2023-07-29T17:01:18;6.40;;;2.73;;
55134;SDS011;41031;44.750;11.308;2023-07-29T17:03:45;5.30;;;2.87;;
55134;SDS011;41031;44.750;11.308;2023-07-29T17:06:16;5.47;;;2.60;;
55134;SDS011;41031;44.750;11.308;2023-07-29T17:08:43;4.40;;;2.67;;
55134;SDS011;41031;44.750;11.308;2023-07-29T17:11:11;2.47;;;2.27;;
55134;SDS011;41031;44.750;11.308;2023-07-29T17:13:42;9.90;;;2.73;;
55134;SDS011;41031;44.750;11.308;2023-07-29T17:16:10;3.43;;;2.57;;
55134;SDS011;41031;44.750;11.308;2023-07-29T17:18:37;4.37;;;2.43;;
55134;SDS011;41031;44.750;11.308;2023-07-29T17:21:06;4.87;;;2.57;;
55134;SDS011;41031;44.750;11.308;2023-07-29T17:23:42;3.33;;;3.03;;
55134;SDS011;41031;44.750;11.308;2023-07-29T17:26:09;5.20;;;2.63;;
55134;SDS011;41031;44.750;11.308;2023-07-29T17:28:36;5.57;;;2.33;;
55134;SDS011;41031;44.750;11.308;2023-07-29T17:31:04;10.73;;;2.40;;
55134;SDS011;41031;44.750;11.308;2023-07-29T17:33:32;3.53;;;2.63;;
55134;SDS011;41031;44.750;11.308;2023-07-29T17:36:01;3.37;;;2.33;;
55134;SDS011;41031;44.750;11.308;2023-07-29T17:38:31;5.10;;;2.47;;
55134;SDS011;41031;44.750;11.308;2023-07-29T17:41:04;5.13;;;2.50;;
55134;SDS011;41031;44.750;11.308;2023-07-29T17:43:38;4.33;;;2.60;;
55134;SDS011;41031;44.750;11.308;2023-07-29T17:46:10;3.07;;;2.50;;
55134;SDS011;41031;44.750;11.308;2023-07-29T17:48:44;3.80;;;2.20;;
55134;SDS011;41031;44.750;11.308;2023-07-29T17:51:15;4.07;;;2.63;;
55134;SDS011;41031;44.750;11.308;2023-07-29T17:53:42;7.30;;;2.73;;
55134;SDS011;41031;44.750;11.308;2023-07-29T17:56:10;9.77;;;2.77;;